sensor_id;sensor_type;location;lat;lon;timestamp;pressure;altitude;pressure_sealevel;temperature;humidity
10606;BME280;5350;42.698;23.148;2023-05-09T00:02:22;93912.25;;;11.68;100.00
10606;BME280;5350;42.698;23.148;2023-05-09T00:04:48;93909.84;;;11.72;100.00
10606;BME280;5350;42.698;23.148;2023-05-09T00:07:15;93908.50;;;11.74;100.00
10606;BME280;5350;42.698;23.148;2023-05-09T00:09:42;93901.16;;;11.71;100.00
10606;BME280;5350;42.698;23.148;2023-05-09T00:12:10;93917.16;;;11.75;100.00
10606;BME280;5350;42.698;23.148;2023-05-09T00:14:37;93906.72;;;11.70;100.00
10606;BME280;5350;42.698;23.148;2023-05-09T00:17:05;93868.78;;;11.52;100.00
10606;BME280;5350;42.698;23.148;2023-05-09T00:19:32;93906.94;;;11.73;100.00
10606;BME280;5350;42.698;23.148;2023-05-09T00:21:58;93915.53;;;11.79;100.00
10606;BME280;5350;42.698;23.148;2023-05-09T00:24:25;93900.50;;;11.79;100.00
10606;BME280;5350;42.698;23.148;2023-05-09T00:26:52;93900.00;;;11.59;100.00
10606;BME280;5350;42.698;23.148;2023-05-09T00:29:20;93897.31;;;11.64;100.00
10606;BME280;5350;42.698;23.148;2023-05-09T00:31:47;93893.41;;;11.61;100.00
10606;BME280;5350;42.698;23.148;2023-05-09T00:34:14;93891.81;;;11.60;100.00
10606;BME280;5350;42.698;23.148;2023-05-09T00:36:40;93897.00;;;11.65;100.00
10606;BME280;5350;42.698;23.148;2023-05-09T00:39:07;93897.44;;;11.72;100.00
10606;BME280;5350;42.698;23.148;2023-05-09T00:41:34;93891.59;;;11.75;100.00
10606;BME280;5350;42.698;23.148;2023-05-09T00:44:00;93900.88;;;11.73;100.00
10606;BME280;5350;42.698;23.148;2023-05-09T00:46:28;93897.88;;;11.61;100.00
10606;BME280;5350;42.698;23.148;2023-05-09T00:48:55;93900.22;;;11.62;100.00
10606;BME280;5350;42.698;23.148;2023-05-09T00:51:23;93895.72;;;11.63;100.00
10606;BME280;5350;42.698;23.148;2023-05-09T00:53:50;93896.53;;;11.63;100.00
10606;BME280;5350;42.698;23.148;2023-05-09T00:56:17;93897.75;;;11.71;100.00
10606;BME280;5350;42.698;23.148;2023-05-09T00:58:44;93905.34;;;11.72;100.00
10606;BME280;5350;42.698;23.148;2023-05-09T01:01:10;93905.56;;;11.76;100.00
10606;BME280;5350;42.698;23.148;2023-05-09T01:03:39;93898.88;;;11.65;100.00
10606;BME280;5350;42.698;23.148;2023-05-09T01:06:13;93897.25;;;11.69;100.00
10606;BME280;5350;42.698;23.148;2023-05-09T01:08:46;93898.53;;;11.71;100.00
10606;BME280;5350;42.698;23.148;2023-05-09T01:11:21;93890.56;;;11.76;100.00
10606;BME280;5350;42.698;23.148;2023-05-09T01:14:01;93886.13;;;11.72;100.00
10606;BME280;5350;42.698;23.148;2023-05-09T01:16:36;93891.75;;;11.65;100.00
10606;BME280;5350;42.698;23.148;2023-05-09T01:19:13;93892.81;;;11.64;100.00
10606;BME280;5350;42.698;23.148;2023-05-09T01:21:48;93903.34;;;11.64;100.00
10606;BME280;5350;42.698;23.148;2023-05-09T01:24:24;93915.19;;;11.67;100.00
10606;BME280;5350;42.698;23.148;2023-05-09T01:27:09;93910.75;;;11.62;100.00
10606;BME280;5350;42.698;23.148;2023-05-09T01:29:44;93913.88;;;11.64;100.00
10606;BME280;5350;42.698;23.148;2023-05-09T01:32:14;93906.50;;;11.66;100.00
10606;BME280;5350;42.698;23.148;2023-05-09T01:34:43;93905.88;;;11.74;100.00
10606;BME280;5350;42.698;23.148;2023-05-09T01:37:12;93908.88;;;11.68;100.00
10606;BME280;5350;42.698;23.148;2023-05-09T01:39:45;93911.13;;;11.74;100.00
10606;BME280;5350;42.698;23.148;2023-05-09T01:42:14;93913.47;;;11.76;100.00
10606;BME280;5350;42.698;23.148;2023-05-09T01:44:44;93902.63;;;11.77;100.00
10606;BME280;5350;42.698;23.148;2023-05-09T01:47:13;93913.19;;;11.77;100.00
10606;BME280;5350;42.698;23.148;2023-05-09T01:49:42;93906.84;;;11.78;100.00
10606;BME280;5350;42.698;23.148;2023-05-09T01:52:11;93916.31;;;11.79;100.00
10606;BME280;5350;42.698;23.148;2023-05-09T01:54:39;93915.13;;;11.72;100.00
10606;BME280;5350;42.698;23.148;2023-05-09T01:57:07;93928.78;;;11.74;100.00
10606;BME280;5350;42.698;23.148;2023-05-09T01:59:39;93918.25;;;11.74;100.00
10606;BME280;5350;42.698;23.148;2023-05-09T02:02:08;93918.25;;;11.74;100.00
10606;BME280;5350;42.698;23.148;2023-05-09T02:04:35;93918.44;;;11.77;100.00
10606;BME280;5350;42.698;23.148;2023-05-09T02:07:04;93914.13;;;11.68;100.00
10606;BME280;5350;42.698;23.148;2023-05-09T02:09:31;93917.88;;;11.80;100.00
10606;BME280;5350;42.698;23.148;2023-05-09T02:11:58;93922.53;;;11.70;100.00
10606;BME280;5350;42.698;23.148;2023-05-09T02:14:25;93914.47;;;11.61;100.00
10606;BME280;5350;42.698;23.148;2023-05-09T02:16:52;93914.41;;;11.66;100.00
10606;BME280;5350;42.698;23.148;2023-05-09T02:19:20;93912.81;;;11.65;100.00
10606;BME280;5350;42.698;23.148;2023-05-09T02:21:47;93891.50;;;11.48;100.00
10606;BME280;5350;42.698;23.148;2023-05-09T02:24:14;93908.41;;;11.61;100.00
10606;BME280;5350;42.698;23.148;2023-05-09T02:26:41;93896.13;;;11.38;100.00
10606;BME280;5350;42.698;23.148;2023-05-09T02:29:09;93911.50;;;11.49;100.00
10606;BME280;5350;42.698;23.148;2023-05-09T02:31:39;93918.63;;;11.49;100.00
10606;BME280;5350;42.698;23.148;2023-05-09T02:34:08;93917.91;;;11.43;100.00
10606;BME280;5350;42.698;23.148;2023-05-09T02:36:37;93913.06;;;11.50;100.00
10606;BME280;5350;42.698;23.148;2023-05-09T02:39:05;93914.25;;;11.58;100.00
10606;BME280;5350;42.698;23.148;2023-05-09T02:41:32;93909.69;;;11.63;100.00
10606;BME280;5350;42.698;23.148;2023-05-09T02:43:59;93908.72;;;11.59;100.00
10606;BME280;5350;42.698;23.148;2023-05-09T02:46:25;93909.38;;;11.51;100.00
10606;BME280;5350;42.698;23.148;2023-05-09T02:48:52;93908.78;;;11.54;100.00
10606;BME280;5350;42.698;23.148;2023-05-09T02:51:19;93907.78;;;11.50;100.00
10606;BME280;5350;42.698;23.148;2023-05-09T02:53:47;93913.06;;;11.50;100.00
10606;BME280;5350;42.698;23.148;2023-05-09T02:56:13;93910.72;;;11.49;100.00
10606;BME280;5350;42.698;23.148;2023-05-09T02:58:41;93911.50;;;11.49;100.00
10606;BME280;5350;42.698;23.148;2023-05-09T03:01:07;93911.06;;;11.42;100.00
10606;BME280;5350;42.698;23.148;2023-05-09T03:03:34;93915.34;;;11.38;100.00
10606;BME280;5350;42.698;23.148;2023-05-09T03:06:02;93916.00;;;11.30;100.00
10606;BME280;5350;42.698;23.148;2023-05-09T03:08:29;93918.34;;;11.32;100.00
10606;BME280;5350;42.698;23.148;2023-05-09T03:10:57;93910.59;;;11.21;100.00
10606;BME280;5350;42.698;23.148;2023-05-09T03:13:24;93916.22;;;11.34;100.00
10606;BME280;5350;42.698;23.148;2023-05-09T03:15:50;93925.25;;;11.27;100.00
10606;BME280;5350;42.698;23.148;2023-05-09T03:18:17;93929.03;;;11.21;100.00
10606;BME280;5350;42.698;23.148;2023-05-09T03:20:44;93936.44;;;11.19;100.00
10606;BME280;5350;42.698;23.148;2023-05-09T03:23:10;93943.03;;;11.17;100.00
10606;BME280;5350;42.698;23.148;2023-05-09T03:25:37;93944.38;;;11.14;100.00
10606;BME280;5350;42.698;23.148;2023-05-09T03:28:05;93941.47;;;11.16;100.00
10606;BME280;5350;42.698;23.148;2023-05-09T03:30:32;93944.19;;;11.11;100.00
10606;BME280;5350;42.698;23.148;2023-05-09T03:32:59;93945.72;;;11.12;100.00
10606;BME280;5350;42.698;23.148;2023-05-09T03:35:25;93949.34;;;11.16;100.00
10606;BME280;5350;42.698;23.148;2023-05-09T03:37:52;93948.59;;;11.15;100.00
10606;BME280;5350;42.698;23.148;2023-05-09T03:40:19;93947.31;;;11.13;100.00
10606;BME280;5350;42.698;23.148;2023-05-09T03:42:45;93951.50;;;11.14;100.00
10606;BME280;5350;42.698;23.148;2023-05-09T03:45:13;93938.13;;;11.10;100.00
10606;BME280;5350;42.698;23.148;2023-05-09T03:47:40;93950.59;;;11.05;100.00
10606;BME280;5350;42.698;23.148;2023-05-09T03:50:08;93950.88;;;11.03;100.00
10606;BME280;5350;42.698;23.148;2023-05-09T03:52:35;93944.88;;;10.98;100.00
10606;BME280;5350;42.698;23.148;2023-05-09T03:55:02;93954.56;;;11.02;100.00
10606;BME280;5350;42.698;23.148;2023-05-09T03:57:30;93960.47;;;11.13;100.00
10606;BME280;5350;42.698;23.148;2023-05-09T03:59:56;93956.50;;;11.15;100.00
10606;BME280;5350;42.698;23.148;2023-05-09T04:02:24;93955.16;;;11.18;100.00
10606;BME280;5350;42.698;23.148;2023-05-09T04:04:51;93952.13;;;11.24;100.00
10606;BME280;5350;42.698;23.148;2023-05-09T04:07:18;93954.72;;;11.30;100.00
10606;BME280;5350;42.698;23.148;2023-05-09T04:09:45;93956.72;;;11.38;100.00
10606;BME280;5350;42.698;23.148;2023-05-09T04:12:12;93951.09;;;11.44;100.00
10606;BME280;5350;42.698;23.148;2023-05-09T04:14:38;93960.47;;;11.50;100.00
10606;BME280;5350;42.698;23.148;2023-05-09T04:17:05;93954.41;;;11.50;100.00
10606;BME280;5350;42.698;23.148;2023-05-09T04:19:33;93956.94;;;11.60;100.00
10606;BME280;5350;42.698;23.148;2023-05-09T04:22:00;93946.94;;;11.57;100.00
10606;BME280;5350;42.698;23.148;2023-05-09T04:24:27;93955.94;;;11.74;100.00
10606;BME280;5350;42.698;23.148;2023-05-09T04:26:53;93954.91;;;11.70;100.00
10606;BME280;5350;42.698;23.148;2023-05-09T04:29:20;93953.22;;;11.79;100.00
10606;BME280;5350;42.698;23.148;2023-05-09T04:31:47;93959.88;;;11.90;100.00
10606;BME280;5350;42.698;23.148;2023-05-09T04:34:13;93959.41;;;12.02;100.00
10606;BME280;5350;42.698;23.148;2023-05-09T04:36:42;93961.69;;;12.09;100.00
10606;BME280;5350;42.698;23.148;2023-05-09T04:39:08;93963.28;;;12.10;100.00
10606;BME280;5350;42.698;23.148;2023-05-09T04:41:35;93962.19;;;12.11;100.00
10606;BME280;5350;42.698;23.148;2023-05-09T04:44:02;93969.53;;;12.14;100.00
10606;BME280;5350;42.698;23.148;2023-05-09T04:46:29;93966.03;;;12.18;100.00
10606;BME280;5350;42.698;23.148;2023-05-09T04:48:56;93969.31;;;12.10;100.00
10606;BME280;5350;42.698;23.148;2023-05-09T04:51:22;93929.41;;;11.84;100.00
10606;BME280;5350;42.698;23.148;2023-05-09T04:53:50;93971.69;;;12.25;100.00
10606;BME280;5350;42.698;23.148;2023-05-09T04:56:17;93967.19;;;12.26;100.00
10606;BME280;5350;42.698;23.148;2023-05-09T04:58:44;93967.69;;;12.28;100.00
10606;BME280;5350;42.698;23.148;2023-05-09T05:01:11;93969.34;;;12.24;100.00
10606;BME280;5350;42.698;23.148;2023-05-09T05:03:37;93967.78;;;12.23;100.00
10606;BME280;5350;42.698;23.148;2023-05-09T05:06:04;93966.72;;;12.37;100.00
10606;BME280;5350;42.698;23.148;2023-05-09T05:08:31;93964.69;;;12.34;100.00
10606;BME280;5350;42.698;23.148;2023-05-09T05:10:59;93965.13;;;12.23;100.00
10606;BME280;5350;42.698;23.148;2023-05-09T05:13:26;93977.34;;;12.19;100.00
10606;BME280;5350;42.698;23.148;2023-05-09T05:15:53;93972.97;;;12.28;100.00
10606;BME280;5350;42.698;23.148;2023-05-09T05:18:20;93968.75;;;12.27;100.00
10606;BME280;5350;42.698;23.148;2023-05-09T05:20:47;93975.97;;;12.21;100.00
10606;BME280;5350;42.698;23.148;2023-05-09T05:23:14;93965.25;;;12.31;100.00
10606;BME280;5350;42.698;23.148;2023-05-09T05:25:40;93971.72;;;12.39;100.00
10606;BME280;5350;42.698;23.148;2023-05-09T05:28:08;93975.22;;;12.48;100.00
10606;BME280;5350;42.698;23.148;2023-05-09T05:30:35;93971.84;;;12.47;100.00
10606;BME280;5350;42.698;23.148;2023-05-09T05:33:02;93980.53;;;12.61;100.00
10606;BME280;5350;42.698;23.148;2023-05-09T05:35:28;93975.44;;;12.65;100.00
10606;BME280;5350;42.698;23.148;2023-05-09T05:37:55;93979.44;;;12.62;100.00
10606;BME280;5350;42.698;23.148;2023-05-09T05:40:22;93983.66;;;12.63;100.00
10606;BME280;5350;42.698;23.148;2023-05-09T05:42:48;93979.25;;;12.59;100.00
10606;BME280;5350;42.698;23.148;2023-05-09T05:45:16;93981.59;;;12.60;100.00
10606;BME280;5350;42.698;23.148;2023-05-09T05:47:43;93987.00;;;12.69;100.00
10606;BME280;5350;42.698;23.148;2023-05-09T05:50:10;93987.97;;;12.73;100.00
10606;BME280;5350;42.698;23.148;2023-05-09T05:52:37;93983.47;;;12.87;100.00
10606;BME280;5350;42.698;23.148;2023-05-09T05:55:04;93991.13;;;12.89;100.00
10606;BME280;5350;42.698;23.148;2023-05-09T05:57:31;93985.44;;;13.09;100.00
10606;BME280;5350;42.698;23.148;2023-05-09T05:59:58;93986.59;;;13.16;100.00
10606;BME280;5350;42.698;23.148;2023-05-09T06:02:27;93980.94;;;13.23;100.00
10606;BME280;5350;42.698;23.148;2023-05-09T06:04:53;93985.22;;;13.32;100.00
10606;BME280;5350;42.698;23.148;2023-05-09T06:07:20;93988.38;;;13.56;100.00
10606;BME280;5350;42.698;23.148;2023-05-09T06:09:47;93989.66;;;13.59;100.00
10606;BME280;5350;42.698;23.148;2023-05-09T06:12:13;93985.72;;;13.70;100.00
10606;BME280;5350;42.698;23.148;2023-05-09T06:14:41;93955.69;;;13.66;100.00
10606;BME280;5350;42.698;23.148;2023-05-09T06:17:08;93991.50;;;13.94;100.00
10606;BME280;5350;42.698;23.148;2023-05-09T06:19:36;93990.91;;;13.97;100.00
10606;BME280;5350;42.698;23.148;2023-05-09T06:22:02;93982.59;;;14.12;100.00
10606;BME280;5350;42.698;23.148;2023-05-09T06:24:29;93989.03;;;14.20;100.00
10606;BME280;5350;42.698;23.148;2023-05-09T06:26:56;93985.56;;;14.33;100.00
10606;BME280;5350;42.698;23.148;2023-05-09T06:29:23;93990.72;;;14.38;100.00
10606;BME280;5350;42.698;23.148;2023-05-09T06:31:50;93988.72;;;14.43;100.00
10606;BME280;5350;42.698;23.148;2023-05-09T06:34:16;93995.59;;;14.45;100.00
10606;BME280;5350;42.698;23.148;2023-05-09T06:36:44;93993.34;;;14.60;100.00
10606;BME280;5350;42.698;23.148;2023-05-09T06:39:11;93989.09;;;14.51;100.00
10606;BME280;5350;42.698;23.148;2023-05-09T06:41:38;93996.22;;;14.50;100.00
10606;BME280;5350;42.698;23.148;2023-05-09T06:44:04;93996.97;;;14.42;100.00
10606;BME280;5350;42.698;23.148;2023-05-09T06:46:31;93993.19;;;14.65;100.00
10606;BME280;5350;42.698;23.148;2023-05-09T06:48:58;93995.63;;;14.84;100.00
10606;BME280;5350;42.698;23.148;2023-05-09T06:51:26;93996.44;;;14.93;100.00
10606;BME280;5350;42.698;23.148;2023-05-09T06:53:54;93993.06;;;15.09;100.00
10606;BME280;5350;42.698;23.148;2023-05-09T06:56:20;93993.63;;;14.98;99.16
10606;BME280;5350;42.698;23.148;2023-05-09T06:58:47;93959.88;;;14.73;99.50
10606;BME280;5350;42.698;23.148;2023-05-09T07:01:14;93984.75;;;14.94;98.88
10606;BME280;5350;42.698;23.148;2023-05-09T07:03:41;93989.41;;;14.88;100.00
10606;BME280;5350;42.698;23.148;2023-05-09T07:06:08;93986.81;;;15.05;100.00
10606;BME280;5350;42.698;23.148;2023-05-09T07:08:34;93974.84;;;15.16;100.00
10606;BME280;5350;42.698;23.148;2023-05-09T07:11:02;93975.63;;;15.17;96.73
10606;BME280;5350;42.698;23.148;2023-05-09T07:13:30;93985.13;;;15.09;95.45
10606;BME280;5350;42.698;23.148;2023-05-09T07:15:57;93995.44;;;15.19;96.76
10606;BME280;5350;42.698;23.148;2023-05-09T07:18:24;93989.69;;;15.35;95.49
10606;BME280;5350;42.698;23.148;2023-05-09T07:20:50;93986.41;;;15.38;94.80
10606;BME280;5350;42.698;23.148;2023-05-09T07:23:17;93988.53;;;15.58;95.76
10606;BME280;5350;42.698;23.148;2023-05-09T07:25:44;93992.41;;;15.77;92.61
10606;BME280;5350;42.698;23.148;2023-05-09T07:28:12;93997.72;;;15.94;89.05
10606;BME280;5350;42.698;23.148;2023-05-09T07:30:38;93986.50;;;16.06;89.13
10606;BME280;5350;42.698;23.148;2023-05-09T07:33:06;93992.28;;;16.08;84.33
10606;BME280;5350;42.698;23.148;2023-05-09T07:35:33;93993.03;;;16.17;86.87
10606;BME280;5350;42.698;23.148;2023-05-09T07:38:00;93991.03;;;16.06;85.43
10606;BME280;5350;42.698;23.148;2023-05-09T07:40:26;93986.50;;;15.97;85.79
10606;BME280;5350;42.698;23.148;2023-05-09T07:42:53;93990.09;;;15.93;84.98
10606;BME280;5350;42.698;23.148;2023-05-09T07:45:22;93986.97;;;15.82;87.04
10606;BME280;5350;42.698;23.148;2023-05-09T07:47:49;93997.72;;;15.86;86.05
10606;BME280;5350;42.698;23.148;2023-05-09T07:50:15;93996.00;;;15.73;90.72
10606;BME280;5350;42.698;23.148;2023-05-09T07:52:42;93993.53;;;15.68;91.65
10606;BME280;5350;42.698;23.148;2023-05-09T07:55:09;93984.94;;;15.71;93.99
10606;BME280;5350;42.698;23.148;2023-05-09T07:57:36;93954.31;;;15.39;92.08
10606;BME280;5350;42.698;23.148;2023-05-09T08:00:05;93979.19;;;15.60;94.58
10606;BME280;5350;42.698;23.148;2023-05-09T08:02:33;93974.97;;;15.85;93.23
10606;BME280;5350;42.698;23.148;2023-05-09T08:05:00;93984.31;;;16.08;88.97
10606;BME280;5350;42.698;23.148;2023-05-09T08:07:27;93986.00;;;16.21;86.18
10606;BME280;5350;42.698;23.148;2023-05-09T08:09:54;93984.59;;;16.32;88.83
10606;BME280;5350;42.698;23.148;2023-05-09T08:12:20;93986.63;;;16.27;86.70
10606;BME280;5350;42.698;23.148;2023-05-09T08:14:47;93996.00;;;16.33;85.85
10606;BME280;5350;42.698;23.148;2023-05-09T08:17:14;93996.78;;;16.33;84.29
10606;BME280;5350;42.698;23.148;2023-05-09T08:19:42;93990.56;;;16.12;88.03
10606;BME280;5350;42.698;23.148;2023-05-09T08:22:15;93996.78;;;16.16;89.57
10606;BME280;5350;42.698;23.148;2023-05-09T08:24:42;93991.97;;;16.01;90.34
10606;BME280;5350;42.698;23.148;2023-05-09T08:27:10;93992.56;;;16.07;89.37
10606;BME280;5350;42.698;23.148;2023-05-09T08:29:38;93990.41;;;15.83;90.84
10606;BME280;5350;42.698;23.148;2023-05-09T08:32:04;93985.88;;;15.92;91.02
10606;BME280;5350;42.698;23.148;2023-05-09T08:34:31;93987.28;;;15.89;90.07
10606;BME280;5350;42.698;23.148;2023-05-09T08:37:00;93989.00;;;15.94;89.54
10606;BME280;5350;42.698;23.148;2023-05-09T08:39:27;93990.72;;;15.98;90.40
10606;BME280;5350;42.698;23.148;2023-05-09T08:41:57;93984.00;;;16.10;89.01
10606;BME280;5350;42.698;23.148;2023-05-09T08:44:24;93968.06;;;16.10;86.97
10606;BME280;5350;42.698;23.148;2023-05-09T08:46:55;93988.66;;;16.30;87.79
10606;BME280;5350;42.698;23.148;2023-05-09T08:49:23;93979.75;;;16.34;87.22
10606;BME280;5350;42.698;23.148;2023-05-09T08:51:51;93979.28;;;16.32;88.00
10606;BME280;5350;42.698;23.148;2023-05-09T08:54:20;93970.25;;;16.16;90.64
10606;BME280;5350;42.698;23.148;2023-05-09T08:56:46;93981.31;;;16.35;89.47
10606;BME280;5350;42.698;23.148;2023-05-09T08:59:13;93972.09;;;16.41;88.98
10606;BME280;5350;42.698;23.148;2023-05-09T09:01:42;93988.78;;;16.42;89.20
10606;BME280;5350;42.698;23.148;2023-05-09T09:04:09;93983.97;;;16.35;88.07
10606;BME280;5350;42.698;23.148;2023-05-09T09:06:38;93984.63;;;15.98;87.77
10606;BME280;5350;42.698;23.148;2023-05-09T09:09:06;93977.75;;;15.97;89.98
10606;BME280;5350;42.698;23.148;2023-05-09T09:11:35;93977.16;;;15.83;88.24
10606;BME280;5350;42.698;23.148;2023-05-09T09:14:09;93967.94;;;15.63;89.76
10606;BME280;5350;42.698;23.148;2023-05-09T09:16:37;93994.59;;;15.75;87.47
10606;BME280;5350;42.698;23.148;2023-05-09T09:19:10;93976.38;;;15.99;88.61
10606;BME280;5350;42.698;23.148;2023-05-09T09:21:39;93982.28;;;16.05;85.44
10606;BME280;5350;42.698;23.148;2023-05-09T09:24:07;93935.31;;;15.71;85.22
10606;BME280;5350;42.698;23.148;2023-05-09T09:26:45;93981.19;;;15.97;85.04
10606;BME280;5350;42.698;23.148;2023-05-09T09:29:13;93985.41;;;16.07;82.97
10606;BME280;5350;42.698;23.148;2023-05-09T09:31:43;93986.50;;;15.89;82.44
10606;BME280;5350;42.698;23.148;2023-05-09T09:34:11;93986.50;;;15.80;83.88
10606;BME280;5350;42.698;23.148;2023-05-09T09:36:38;93988.03;;;15.73;85.03
10606;BME280;5350;42.698;23.148;2023-05-09T09:39:05;93980.56;;;16.00;83.10
10606;BME280;5350;42.698;23.148;2023-05-09T09:41:32;93984.16;;;15.96;84.10
10606;BME280;5350;42.698;23.148;2023-05-09T09:44:05;93979.16;;;16.20;82.24
10606;BME280;5350;42.698;23.148;2023-05-09T09:46:40;93981.47;;;16.22;85.95
10606;BME280;5350;42.698;23.148;2023-05-09T09:49:08;93980.16;;;16.70;85.08
10606;BME280;5350;42.698;23.148;2023-05-09T09:51:34;93953.22;;;16.81;80.95
10606;BME280;5350;42.698;23.148;2023-05-09T09:54:01;93988.59;;;16.72;78.97
10606;BME280;5350;42.698;23.148;2023-05-09T09:56:37;93985.00;;;16.68;79.87
10606;BME280;5350;42.698;23.148;2023-05-09T09:59:10;93981.78;;;16.92;79.35
10606;BME280;5350;42.698;23.148;2023-05-09T10:01:58;93981.75;;;17.01;79.91
10606;BME280;5350;42.698;23.148;2023-05-09T10:04:27;93979.75;;;16.98;78.36
10606;BME280;5350;42.698;23.148;2023-05-09T10:06:55;93981.50;;;17.23;78.49
10606;BME280;5350;42.698;23.148;2023-05-09T10:09:22;93965.34;;;17.57;81.86
10606;BME280;5350;42.698;23.148;2023-05-09T10:11:50;93971.34;;;17.75;79.30
10606;BME280;5350;42.698;23.148;2023-05-09T10:14:20;93971.81;;;17.47;76.54
10606;BME280;5350;42.698;23.148;2023-05-09T10:16:48;93958.19;;;17.20;75.08
10606;BME280;5350;42.698;23.148;2023-05-09T10:19:17;93976.53;;;17.13;79.23
10606;BME280;5350;42.698;23.148;2023-05-09T10:21:50;93959.41;;;17.31;79.90
10606;BME280;5350;42.698;23.148;2023-05-09T10:24:21;93960.34;;;17.26;80.07
10606;BME280;5350;42.698;23.148;2023-05-09T10:26:58;93951.91;;;17.53;81.43
10606;BME280;5350;42.698;23.148;2023-05-09T10:29:28;93965.41;;;17.69;77.52
10606;BME280;5350;42.698;23.148;2023-05-09T10:31:58;93963.78;;;17.97;75.84
10606;BME280;5350;42.698;23.148;2023-05-09T10:34:30;93966.22;;;18.02;71.79
10606;BME280;5350;42.698;23.148;2023-05-09T10:37:00;93959.50;;;18.05;71.82
10606;BME280;5350;42.698;23.148;2023-05-09T10:39:28;93959.44;;;17.93;71.52
10606;BME280;5350;42.698;23.148;2023-05-09T10:41:57;93963.13;;;18.00;72.29
10606;BME280;5350;42.698;23.148;2023-05-09T10:44:26;93962.66;;;18.19;70.08
10606;BME280;5350;42.698;23.148;2023-05-09T10:46:54;93966.34;;;18.26;69.76
10606;BME280;5350;42.698;23.148;2023-05-09T10:49:21;93961.63;;;18.44;70.32
10606;BME280;5350;42.698;23.148;2023-05-09T10:51:48;93955.81;;;18.30;69.11
10606;BME280;5350;42.698;23.148;2023-05-09T10:54:25;93915.88;;;17.97;70.03
10606;BME280;5350;42.698;23.148;2023-05-09T10:56:53;93955.03;;;18.29;73.00
10606;BME280;5350;42.698;23.148;2023-05-09T10:59:36;93936.59;;;18.24;74.66
10606;BME280;5350;42.698;23.148;2023-05-09T11:02:03;93956.31;;;18.44;70.36
10606;BME280;5350;42.698;23.148;2023-05-09T11:04:31;93930.28;;;17.96;68.16
10606;BME280;5350;42.698;23.148;2023-05-09T11:06:58;93958.41;;;18.06;71.85
10606;BME280;5350;42.698;23.148;2023-05-09T11:09:30;93951.28;;;18.30;70.40
10606;BME280;5350;42.698;23.148;2023-05-09T11:12:00;93954.72;;;18.64;67.00
10606;BME280;5350;42.698;23.148;2023-05-09T11:14:38;93949.09;;;19.01;68.74
10606;BME280;5350;42.698;23.148;2023-05-09T11:17:06;93950.97;;;18.77;64.72
10606;BME280;5350;42.698;23.148;2023-05-09T11:19:34;93952.19;;;18.91;63.63
10606;BME280;5350;42.698;23.148;2023-05-09T11:22:11;93959.19;;;19.08;67.10
10606;BME280;5350;42.698;23.148;2023-05-09T11:24:38;93947.66;;;19.04;64.20
10606;BME280;5350;42.698;23.148;2023-05-09T11:27:13;93930.88;;;18.91;66.49
10606;BME280;5350;42.698;23.148;2023-05-09T11:29:46;93950.53;;;18.87;64.27
10606;BME280;5350;42.698;23.148;2023-05-09T11:32:15;93951.31;;;18.75;63.44
10606;BME280;5350;42.698;23.148;2023-05-09T11:34:42;93940.94;;;18.74;64.87
10606;BME280;5350;42.698;23.148;2023-05-09T11:37:10;93943.63;;;18.86;66.37
10606;BME280;5350;42.698;23.148;2023-05-09T11:39:56;93938.25;;;18.50;64.42
10606;BME280;5350;42.698;23.148;2023-05-09T11:42:23;93935.56;;;18.17;66.28
10606;BME280;5350;42.698;23.148;2023-05-09T11:44:52;93951.09;;;18.15;67.30
10606;BME280;5350;42.698;23.148;2023-05-09T11:47:19;93944.44;;;17.88;70.65
10606;BME280;5350;42.698;23.148;2023-05-09T11:49:47;93940.50;;;17.74;69.60
10606;BME280;5350;42.698;23.148;2023-05-09T11:52:13;93941.63;;;17.73;72.05
10606;BME280;5350;42.698;23.148;2023-05-09T11:54:40;93952.09;;;17.69;71.61
10606;BME280;5350;42.698;23.148;2023-05-09T11:57:07;93944.00;;;17.66;70.01
10606;BME280;5350;42.698;23.148;2023-05-09T11:59:35;93948.34;;;17.49;71.45
10606;BME280;5350;42.698;23.148;2023-05-09T12:02:04;93941.38;;;17.36;72.79
10606;BME280;5350;42.698;23.148;2023-05-09T12:04:31;93948.66;;;17.48;72.72
10606;BME280;5350;42.698;23.148;2023-05-09T12:06:58;93957.63;;;17.64;70.68
10606;BME280;5350;42.698;23.148;2023-05-09T12:09:29;93953.94;;;17.77;71.76
10606;BME280;5350;42.698;23.148;2023-05-09T12:11:57;93954.59;;;17.74;72.60
10606;BME280;5350;42.698;23.148;2023-05-09T12:14:26;93952.78;;;17.66;72.38
10606;BME280;5350;42.698;23.148;2023-05-09T12:16:52;93939.88;;;17.56;73.99
10606;BME280;5350;42.698;23.148;2023-05-09T12:19:21;93940.81;;;17.72;72.13
10606;BME280;5350;42.698;23.148;2023-05-09T12:21:52;93936.16;;;17.90;70.62
10606;BME280;5350;42.698;23.148;2023-05-09T12:24:19;93949.53;;;17.81;71.27
10606;BME280;5350;42.698;23.148;2023-05-09T12:26:47;93946.97;;;18.05;72.33
10606;BME280;5350;42.698;23.148;2023-05-09T12:29:14;93934.44;;;18.06;69.10
10606;BME280;5350;42.698;23.148;2023-05-09T12:31:41;93938.72;;;18.19;70.20
10606;BME280;5350;42.698;23.148;2023-05-09T12:34:08;93930.41;;;18.32;71.67
10606;BME280;5350;42.698;23.148;2023-05-09T12:36:36;93932.03;;;18.46;70.26
10606;BME280;5350;42.698;23.148;2023-05-09T12:39:07;93901.38;;;18.40;69.94
10606;BME280;5350;42.698;23.148;2023-05-09T12:41:34;93916.28;;;18.53;68.69
10606;BME280;5350;42.698;23.148;2023-05-09T12:44:02;93922.97;;;18.38;69.01
10606;BME280;5350;42.698;23.148;2023-05-09T12:46:28;93913.34;;;18.33;67.88
10606;BME280;5350;42.698;23.148;2023-05-09T12:48:55;93916.91;;;18.38;69.80
10606;BME280;5350;42.698;23.148;2023-05-09T12:51:22;93911.53;;;18.25;68.45
10606;BME280;5350;42.698;23.148;2023-05-09T12:53:50;93909.25;;;18.03;70.81
10606;BME280;5350;42.698;23.148;2023-05-09T12:56:19;93906.13;;;18.01;72.94
10606;BME280;5350;42.698;23.148;2023-05-09T12:58:47;93902.34;;;17.70;72.23
10606;BME280;5350;42.698;23.148;2023-05-09T13:01:15;93905.59;;;17.54;72.22